sensor_id;sensor_type;location;lat;lon;timestamp;P1;durP1;ratioP1;P2;durP2;ratioP2
65853;SDS011;52627;48.838;2.402;2023-08-20T00:02:01;7.20;;;2.70;;
65853;SDS011;52627;48.838;2.402;2023-08-20T00:04:31;6.90;;;2.80;;
65853;SDS011;52627;48.838;2.402;2023-08-20T00:07:03;8.00;;;2.60;;
65853;SDS011;52627;48.838;2.402;2023-08-20T00:09:31;10.00;;;2.20;;
65853;SDS011;52627;48.838;2.402;2023-08-20T00:12:00;6.60;;;2.30;;
65853;SDS011;52627;48.838;2.402;2023-08-20T00:14:52;8.00;;;2.30;;
65853;SDS011;52627;48.838;2.402;2023-08-20T00:17:22;8.60;;;2.20;;
65853;SDS011;52627;48.838;2.402;2023-08-20T00:19:53;8.10;;;2.30;;
65853;SDS011;52627;48.838;2.402;2023-08-20T00:22:23;12.40;;;2.80;;
65853;SDS011;52627;48.838;2.402;2023-08-20T00:24:53;6.30;;;2.30;;
65853;SDS011;52627;48.838;2.402;2023-08-20T00:27:21;6.40;;;2.30;;
65853;SDS011;52627;48.838;2.402;2023-08-20T00:29:49;5.60;;;2.10;;
65853;SDS011;52627;48.838;2.402;2023-08-20T00:32:16;8.50;;;2.20;;
65853;SDS011;52627;48.838;2.402;2023-08-20T00:34:44;7.20;;;1.90;;
65853;SDS011;52627;48.838;2.402;2023-08-20T00:37:11;7.00;;;2.40;;
65853;SDS011;52627;48.838;2.402;2023-08-20T00:39:39;8.00;;;2.00;;
65853;SDS011;52627;48.838;2.402;2023-08-20T00:42:07;7.40;;;1.90;;
65853;SDS011;52627;48.838;2.402;2023-08-20T00:44:35;6.40;;;2.00;;
65853;SDS011;52627;48.838;2.402;2023-08-20T00:47:04;5.80;;;1.70;;
65853;SDS011;52627;48.838;2.402;2023-08-20T00:49:32;6.70;;;2.10;;
65853;SDS011;52627;48.838;2.402;2023-08-20T00:52:00;6.90;;;2.40;;
65853;SDS011;52627;48.838;2.402;2023-08-20T00:54:28;8.50;;;2.00;;
65853;SDS011;52627;48.838;2.402;2023-08-20T00:56:56;7.40;;;2.60;;
65853;SDS011;52627;48.838;2.402;2023-08-20T00:59:23;9.60;;;2.20;;
65853;SDS011;52627;48.838;2.402;2023-08-20T01:01:51;7.90;;;2.20;;
65853;SDS011;52627;48.838;2.402;2023-08-20T01:04:18;6.40;;;2.10;;
65853;SDS011;52627;48.838;2.402;2023-08-20T01:12:44;9.00;;;2.50;;
65853;SDS011;52627;48.838;2.402;2023-08-20T01:15:13;7.70;;;2.30;;
65853;SDS011;52627;48.838;2.402;2023-08-20T01:17:41;7.30;;;2.20;;
65853;SDS011;52627;48.838;2.402;2023-08-20T01:20:10;6.60;;;2.70;;
65853;SDS011;52627;48.838;2.402;2023-08-20T01:22:59;8.50;;;2.10;;
65853;SDS011;52627;48.838;2.402;2023-08-20T01:26:16;6.10;;;1.80;;
65853;SDS011;52627;48.838;2.402;2023-08-20T01:28:50;9.00;;;2.30;;
65853;SDS011;52627;48.838;2.402;2023-08-20T01:31:19;7.50;;;2.10;;
65853;SDS011;52627;48.838;2.402;2023-08-20T01:33:48;8.20;;;2.30;;
65853;SDS011;52627;48.838;2.402;2023-08-20T01:36:16;8.90;;;2.20;;
65853;SDS011;52627;48.838;2.402;2023-08-20T01:38:44;7.10;;;2.40;;
65853;SDS011;52627;48.838;2.402;2023-08-20T01:41:11;6.30;;;2.40;;
65853;SDS011;52627;48.838;2.402;2023-08-20T01:43:39;6.70;;;2.30;;
65853;SDS011;52627;48.838;2.402;2023-08-20T01:46:07;6.30;;;1.90;;
65853;SDS011;52627;48.838;2.402;2023-08-20T01:48:34;7.00;;;2.80;;
65853;SDS011;52627;48.838;2.402;2023-08-20T01:51:02;9.40;;;2.40;;
65853;SDS011;52627;48.838;2.402;2023-08-20T01:53:29;10.40;;;3.60;;
65853;SDS011;52627;48.838;2.402;2023-08-20T01:55:57;9.30;;;2.40;;
65853;SDS011;52627;48.838;2.402;2023-08-20T01:58:24;6.50;;;2.00;;
65853;SDS011;52627;48.838;2.402;2023-08-20T02:00:52;5.40;;;2.30;;
65853;SDS011;52627;48.838;2.402;2023-08-20T02:03:20;8.30;;;2.40;;
65853;SDS011;52627;48.838;2.402;2023-08-20T02:05:47;7.70;;;2.40;;
65853;SDS011;52627;48.838;2.402;2023-08-20T02:08:15;7.20;;;2.00;;
65853;SDS011;52627;48.838;2.402;2023-08-20T02:10:42;6.80;;;1.90;;
65853;SDS011;52627;48.838;2.402;2023-08-20T02:13:09;8.40;;;2.30;;
65853;SDS011;52627;48.838;2.402;2023-08-20T02:15:37;7.20;;;2.30;;
65853;SDS011;52627;48.838;2.402;2023-08-20T02:18:04;10.20;;;2.50;;
65853;SDS011;52627;48.838;2.402;2023-08-20T02:20:32;7.00;;;2.10;;
65853;SDS011;52627;48.838;2.402;2023-08-20T02:22:59;7.60;;;2.40;;
65853;SDS011;52627;48.838;2.402;2023-08-20T02:25:27;5.20;;;1.90;;
65853;SDS011;52627;48.838;2.402;2023-08-20T02:27:54;5.30;;;1.90;;
65853;SDS011;52627;48.838;2.402;2023-08-20T02:30:22;6.70;;;2.10;;
65853;SDS011;52627;48.838;2.402;2023-08-20T02:32:49;6.80;;;2.10;;
65853;SDS011;52627;48.838;2.402;2023-08-20T02:35:17;6.30;;;2.10;;
65853;SDS011;52627;48.838;2.402;2023-08-20T02:37:44;6.00;;;1.80;;
65853;SDS011;52627;48.838;2.402;2023-08-20T02:40:12;7.40;;;2.20;;
65853;SDS011;52627;48.838;2.402;2023-08-20T02:42:41;5.80;;;2.00;;
65853;SDS011;52627;48.838;2.402;2023-08-20T02:45:09;6.50;;;1.90;;
65853;SDS011;52627;48.838;2.402;2023-08-20T02:47:36;7.20;;;2.20;;
65853;SDS011;52627;48.838;2.402;2023-08-20T02:50:05;9.70;;;3.00;;
65853;SDS011;52627;48.838;2.402;2023-08-20T02:52:32;8.80;;;3.80;;
65853;SDS011;52627;48.838;2.402;2023-08-20T02:55:00;7.60;;;2.60;;
65853;SDS011;52627;48.838;2.402;2023-08-20T02:57:27;9.30;;;2.10;;
65853;SDS011;52627;48.838;2.402;2023-08-20T02:59:55;7.50;;;2.60;;
65853;SDS011;52627;48.838;2.402;2023-08-20T03:02:22;7.10;;;2.40;;
65853;SDS011;52627;48.838;2.402;2023-08-20T03:04:50;9.40;;;2.60;;
65853;SDS011;52627;48.838;2.402;2023-08-20T03:07:17;8.00;;;2.50;;
65853;SDS011;52627;48.838;2.402;2023-08-20T03:09:45;8.80;;;2.40;;
65853;SDS011;52627;48.838;2.402;2023-08-20T03:12:12;9.10;;;2.60;;
65853;SDS011;52627;48.838;2.402;2023-08-20T03:14:40;7.90;;;2.80;;
65853;SDS011;52627;48.838;2.402;2023-08-20T03:17:07;10.30;;;2.80;;
65853;SDS011;52627;48.838;2.402;2023-08-20T03:19:34;8.60;;;2.50;;
65853;SDS011;52627;48.838;2.402;2023-08-20T03:22:02;6.70;;;2.40;;
65853;SDS011;52627;48.838;2.402;2023-08-20T03:24:30;11.20;;;2.70;;
65853;SDS011;52627;48.838;2.402;2023-08-20T03:26:57;10.00;;;2.50;;
65853;SDS011;52627;48.838;2.402;2023-08-20T03:29:25;8.70;;;2.80;;
65853;SDS011;52627;48.838;2.402;2023-08-20T03:31:52;9.40;;;2.90;;
65853;SDS011;52627;48.838;2.402;2023-08-20T03:34:20;7.40;;;2.10;;
65853;SDS011;52627;48.838;2.402;2023-08-20T03:36:47;7.50;;;2.50;;
65853;SDS011;52627;48.838;2.402;2023-08-20T03:39:14;8.30;;;2.20;;
65853;SDS011;52627;48.838;2.402;2023-08-20T03:41:42;8.10;;;2.60;;
65853;SDS011;52627;48.838;2.402;2023-08-20T03:44:09;8.70;;;2.20;;
65853;SDS011;52627;48.838;2.402;2023-08-20T03:46:37;6.00;;;1.90;;
65853;SDS011;52627;48.838;2.402;2023-08-20T03:49:04;7.00;;;2.20;;
65853;SDS011;52627;48.838;2.402;2023-08-20T03:51:32;9.30;;;2.40;;
65853;SDS011;52627;48.838;2.402;2023-08-20T03:53:59;7.80;;;2.30;;
65853;SDS011;52627;48.838;2.402;2023-08-20T03:56:27;8.10;;;2.20;;
65853;SDS011;52627;48.838;2.402;2023-08-20T03:58:55;9.40;;;2.30;;
65853;SDS011;52627;48.838;2.402;2023-08-20T04:01:22;7.00;;;2.00;;
65853;SDS011;52627;48.838;2.402;2023-08-20T04:03:50;7.10;;;2.00;;
65853;SDS011;52627;48.838;2.402;2023-08-20T04:06:17;6.50;;;1.90;;
65853;SDS011;52627;48.838;2.402;2023-08-20T04:08:45;12.30;;;2.40;;
65853;SDS011;52627;48.838;2.402;2023-08-20T04:11:12;8.50;;;2.00;;
65853;SDS011;52627;48.838;2.402;2023-08-20T04:13:40;5.90;;;1.70;;
65853;SDS011;52627;48.838;2.402;2023-08-20T04:16:10;9.60;;;2.40;;
65853;SDS011;52627;48.838;2.402;2023-08-20T04:18:37;6.40;;;1.80;;
65853;SDS011;52627;48.838;2.402;2023-08-20T04:21:05;5.20;;;2.20;;
65853;SDS011;52627;48.838;2.402;2023-08-20T04:23:34;6.10;;;2.30;;
65853;SDS011;52627;48.838;2.402;2023-08-20T04:26:01;6.80;;;2.30;;
65853;SDS011;52627;48.838;2.402;2023-08-20T04:28:29;7.90;;;1.90;;
65853;SDS011;52627;48.838;2.402;2023-08-20T04:30:56;7.40;;;1.80;;
65853;SDS011;52627;48.838;2.402;2023-08-20T04:33:25;7.60;;;2.10;;
65853;SDS011;52627;48.838;2.402;2023-08-20T04:35:52;10.20;;;2.10;;
65853;SDS011;52627;48.838;2.402;2023-08-20T04:38:20;7.60;;;2.00;;
65853;SDS011;52627;48.838;2.402;2023-08-20T04:40:49;9.30;;;2.10;;
65853;SDS011;52627;48.838;2.402;2023-08-20T04:43:16;8.80;;;2.50;;
65853;SDS011;52627;48.838;2.402;2023-08-20T04:45:44;9.00;;;2.90;;
65853;SDS011;52627;48.838;2.402;2023-08-20T04:48:11;6.00;;;1.80;;
65853;SDS011;52627;48.838;2.402;2023-08-20T04:50:39;7.30;;;2.20;;
65853;SDS011;52627;48.838;2.402;2023-08-20T04:53:06;8.80;;;2.40;;
65853;SDS011;52627;48.838;2.402;2023-08-20T04:55:33;7.80;;;2.20;;
65853;SDS011;52627;48.838;2.402;2023-08-20T04:58:01;6.20;;;2.00;;
65853;SDS011;52627;48.838;2.402;2023-08-20T05:00:29;4.60;;;1.80;;
65853;SDS011;52627;48.838;2.402;2023-08-20T05:02:56;5.90;;;2.00;;
65853;SDS011;52627;48.838;2.402;2023-08-20T05:05:25;6.60;;;2.20;;
65853;SDS011;52627;48.838;2.402;2023-08-20T05:07:53;6.70;;;2.40;;
65853;SDS011;52627;48.838;2.402;2023-08-20T05:10:20;7.90;;;2.10;;
65853;SDS011;52627;48.838;2.402;2023-08-20T05:12:48;8.20;;;2.80;;
65853;SDS011;52627;48.838;2.402;2023-08-20T05:15:15;7.20;;;1.90;;
65853;SDS011;52627;48.838;2.402;2023-08-20T05:17:43;5.40;;;1.90;;
65853;SDS011;52627;48.838;2.402;2023-08-20T05:20:11;9.30;;;2.60;;
65853;SDS011;52627;48.838;2.402;2023-08-20T05:22:38;6.40;;;2.10;;
65853;SDS011;52627;48.838;2.402;2023-08-20T05:25:06;7.70;;;2.40;;
65853;SDS011;52627;48.838;2.402;2023-08-20T05:27:34;8.40;;;2.60;;
65853;SDS011;52627;48.838;2.402;2023-08-20T05:30:05;8.10;;;2.60;;
65853;SDS011;52627;48.838;2.402;2023-08-20T05:32:35;7.10;;;2.40;;
65853;SDS011;52627;48.838;2.402;2023-08-20T05:35:04;8.10;;;2.90;;
65853;SDS011;52627;48.838;2.402;2023-08-20T05:37:33;8.40;;;2.80;;
65853;SDS011;52627;48.838;2.402;2023-08-20T05:40:00;7.10;;;2.40;;
65853;SDS011;52627;48.838;2.402;2023-08-20T05:42:28;6.60;;;2.50;;
65853;SDS011;52627;48.838;2.402;2023-08-20T05:44:55;7.70;;;2.30;;
65853;SDS011;52627;48.838;2.402;2023-08-20T05:47:22;5.90;;;2.10;;
65853;SDS011;52627;48.838;2.402;2023-08-20T05:49:50;8.50;;;2.70;;
65853;SDS011;52627;48.838;2.402;2023-08-20T05:52:17;6.40;;;2.20;;
65853;SDS011;52627;48.838;2.402;2023-08-20T05:54:44;7.40;;;2.40;;
65853;SDS011;52627;48.838;2.402;2023-08-20T05:57:12;8.20;;;2.40;;
65853;SDS011;52627;48.838;2.402;2023-08-20T05:59:39;6.20;;;2.10;;
65853;SDS011;52627;48.838;2.402;2023-08-20T06:02:07;7.20;;;2.10;;
65853;SDS011;52627;48.838;2.402;2023-08-20T06:04:34;6.00;;;2.10;;
65853;SDS011;52627;48.838;2.402;2023-08-20T06:07:02;5.80;;;2.20;;
65853;SDS011;52627;48.838;2.402;2023-08-20T06:09:29;7.60;;;2.30;;
65853;SDS011;52627;48.838;2.402;2023-08-20T06:11:56;7.00;;;2.20;;
65853;SDS011;52627;48.838;2.402;2023-08-20T06:14:24;6.90;;;2.00;;
65853;SDS011;52627;48.838;2.402;2023-08-20T06:16:51;6.40;;;2.10;;
65853;SDS011;52627;48.838;2.402;2023-08-20T06:19:19;4.60;;;2.00;;
65853;SDS011;52627;48.838;2.402;2023-08-20T06:21:46;5.50;;;2.10;;
65853;SDS011;52627;48.838;2.402;2023-08-20T06:24:13;6.40;;;2.40;;
65853;SDS011;52627;48.838;2.402;2023-08-20T06:26:41;9.10;;;2.60;;
65853;SDS011;52627;48.838;2.402;2023-08-20T06:29:11;6.60;;;2.30;;
65853;SDS011;52627;48.838;2.402;2023-08-20T06:31:38;6.60;;;2.30;;
65853;SDS011;52627;48.838;2.402;2023-08-20T06:34:06;7.00;;;2.00;;
65853;SDS011;52627;48.838;2.402;2023-08-20T06:36:33;8.80;;;2.30;;
65853;SDS011;52627;48.838;2.402;2023-08-20T06:39:01;6.00;;;2.30;;
65853;SDS011;52627;48.838;2.402;2023-08-20T06:41:29;5.20;;;2.30;;
65853;SDS011;52627;48.838;2.402;2023-08-20T06:43:56;7.60;;;2.30;;
65853;SDS011;52627;48.838;2.402;2023-08-20T06:46:23;6.10;;;2.00;;
65853;SDS011;52627;48.838;2.402;2023-08-20T06:48:51;10.30;;;2.20;;
65853;SDS011;52627;48.838;2.402;2023-08-20T06:51:20;6.20;;;2.30;;
65853;SDS011;52627;48.838;2.402;2023-08-20T06:53:49;6.70;;;2.10;;
65853;SDS011;52627;48.838;2.402;2023-08-20T06:56:16;9.00;;;2.50;;
65853;SDS011;52627;48.838;2.402;2023-08-20T06:58:44;6.70;;;2.10;;
65853;SDS011;52627;48.838;2.402;2023-08-20T07:01:13;7.80;;;2.70;;
65853;SDS011;52627;48.838;2.402;2023-08-20T07:03:42;7.40;;;2.30;;
65853;SDS011;52627;48.838;2.402;2023-08-20T07:06:11;6.80;;;2.30;;
65853;SDS011;52627;48.838;2.402;2023-08-20T07:08:38;7.90;;;2.50;;
65853;SDS011;52627;48.838;2.402;2023-08-20T07:11:07;5.20;;;2.00;;
65853;SDS011;52627;48.838;2.402;2023-08-20T07:13:35;7.10;;;2.30;;
65853;SDS011;52627;48.838;2.402;2023-08-20T07:16:03;6.10;;;2.30;;
65853;SDS011;52627;48.838;2.402;2023-08-20T07:18:31;5.60;;;2.00;;
65853;SDS011;52627;48.838;2.402;2023-08-20T07:20:59;6.20;;;2.20;;
65853;SDS011;52627;48.838;2.402;2023-08-20T07:23:26;7.00;;;2.30;;
65853;SDS011;52627;48.838;2.402;2023-08-20T07:26:08;6.40;;;2.30;;
65853;SDS011;52627;48.838;2.402;2023-08-20T07:28:36;7.40;;;2.30;;
65853;SDS011;52627;48.838;2.402;2023-08-20T07:31:30;5.50;;;2.00;;
65853;SDS011;52627;48.838;2.402;2023-08-20T07:34:01;5.80;;;2.00;;
65853;SDS011;52627;48.838;2.402;2023-08-20T07:36:32;6.80;;;2.40;;
65853;SDS011;52627;48.838;2.402;2023-08-20T07:39:00;7.40;;;2.40;;
65853;SDS011;52627;48.838;2.402;2023-08-20T07:41:29;7.70;;;2.30;;
65853;SDS011;52627;48.838;2.402;2023-08-20T07:43:57;6.70;;;2.00;;
65853;SDS011;52627;48.838;2.402;2023-08-20T07:46:24;5.90;;;2.10;;
65853;SDS011;52627;48.838;2.402;2023-08-20T07:48:51;5.70;;;2.30;;
65853;SDS011;52627;48.838;2.402;2023-08-20T07:51:19;4.70;;;1.90;;
65853;SDS011;52627;48.838;2.402;2023-08-20T07:53:46;7.50;;;2.10;;
65853;SDS011;52627;48.838;2.402;2023-08-20T07:56:14;5.80;;;2.30;;
65853;SDS011;52627;48.838;2.402;2023-08-20T07:58:41;6.10;;;2.00;;
65853;SDS011;52627;48.838;2.402;2023-08-20T08:01:08;5.50;;;2.20;;
65853;SDS011;52627;48.838;2.402;2023-08-20T08:03:36;6.40;;;2.00;;
65853;SDS011;52627;48.838;2.402;2023-08-20T08:06:04;6.30;;;1.90;;
65853;SDS011;52627;48.838;2.402;2023-08-20T08:08:31;5.40;;;2.50;;
65853;SDS011;52627;48.838;2.402;2023-08-20T08:10:58;6.80;;;2.10;;
65853;SDS011;52627;48.838;2.402;2023-08-20T08:13:26;5.10;;;2.00;;
65853;SDS011;52627;48.838;2.402;2023-08-20T08:15:53;5.10;;;2.00;;
65853;SDS011;52627;48.838;2.402;2023-08-20T08:18:21;4.70;;;2.10;;
65853;SDS011;52627;48.838;2.402;2023-08-20T08:20:49;4.30;;;2.20;;
65853;SDS011;52627;48.838;2.402;2023-08-20T08:23:16;5.70;;;1.80;;
65853;SDS011;52627;48.838;2.402;2023-08-20T08:25:44;5.70;;;2.10;;
65853;SDS011;52627;48.838;2.402;2023-08-20T08:28:11;4.90;;;1.80;;
65853;SDS011;52627;48.838;2.402;2023-08-20T08:30:38;4.90;;;2.30;;
65853;SDS011;52627;48.838;2.402;2023-08-20T08:33:07;5.20;;;2.40;;
65853;SDS011;52627;48.838;2.402;2023-08-20T08:35:35;5.70;;;2.30;;
65853;SDS011;52627;48.838;2.402;2023-08-20T08:38:03;5.50;;;2.60;;
65853;SDS011;52627;48.838;2.402;2023-08-20T08:40:33;6.20;;;2.10;;
65853;SDS011;52627;48.838;2.402;2023-08-20T08:43:01;5.20;;;2.40;;
65853;SDS011;52627;48.838;2.402;2023-08-20T08:45:29;4.50;;;2.30;;
65853;SDS011;52627;48.838;2.402;2023-08-20T08:48:01;6.10;;;2.30;;
65853;SDS011;52627;48.838;2.402;2023-08-20T08:50:31;6.10;;;2.60;;
65853;SDS011;52627;48.838;2.402;2023-08-20T08:55:26;4.30;;;2.00;;
65853;SDS011;52627;48.838;2.402;2023-08-20T08:57:54;4.80;;;2.00;;
65853;SDS011;52627;48.838;2.402;2023-08-20T09:00:21;5.80;;;2.40;;
65853;SDS011;52627;48.838;2.402;2023-08-20T09:02:49;4.30;;;1.70;;
65853;SDS011;52627;48.838;2.402;2023-08-20T09:05:17;4.20;;;2.30;;
65853;SDS011;52627;48.838;2.402;2023-08-20T09:07:44;5.50;;;2.40;;
65853;SDS011;52627;48.838;2.402;2023-08-20T09:10:12;6.90;;;2.20;;
65853;SDS011;52627;48.838;2.402;2023-08-20T09:12:47;5.60;;;2.50;;
65853;SDS011;52627;48.838;2.402;2023-08-20T09:15:15;5.20;;;2.40;;
65853;SDS011;52627;48.838;2.402;2023-08-20T09:17:42;6.00;;;2.40;;
65853;SDS011;52627;48.838;2.402;2023-08-20T09:20:10;5.90;;;2.30;;
65853;SDS011;52627;48.838;2.402;2023-08-20T09:22:38;3.60;;;2.10;;
65853;SDS011;52627;48.838;2.402;2023-08-20T09:25:06;5.60;;;2.40;;
65853;SDS011;52627;48.838;2.402;2023-08-20T09:27:40;6.20;;;2.20;;
65853;SDS011;52627;48.838;2.402;2023-08-20T09:30:09;4.80;;;2.20;;
65853;SDS011;52627;48.838;2.402;2023-08-20T09:32:38;4.50;;;1.90;;
65853;SDS011;52627;48.838;2.402;2023-08-20T09:35:05;5.00;;;2.30;;
65853;SDS011;52627;48.838;2.402;2023-08-20T09:37:34;5.40;;;2.20;;
65853;SDS011;52627;48.838;2.402;2023-08-20T09:40:02;4.60;;;2.00;;
65853;SDS011;52627;48.838;2.402;2023-08-20T09:42:31;4.20;;;1.80;;
65853;SDS011;52627;48.838;2.402;2023-08-20T09:45:02;4.60;;;1.60;;
65853;SDS011;52627;48.838;2.402;2023-08-20T09:47:33;4.50;;;1.90;;
65853;SDS011;52627;48.838;2.402;2023-08-20T09:50:07;4.90;;;2.20;;
65853;SDS011;52627;48.838;2.402;2023-08-20T09:52:47;5.70;;;2.30;;
65853;SDS011;52627;48.838;2.402;2023-08-20T09:55:21;6.10;;;2.40;;
65853;SDS011;52627;48.838;2.402;2023-08-20T09:57:50;5.00;;;2.00;;
65853;SDS011;52627;48.838;2.402;2023-08-20T10:00:19;6.30;;;2.30;;
65853;SDS011;52627;48.838;2.402;2023-08-20T10:02:48;5.60;;;2.30;;
65853;SDS011;52627;48.838;2.402;2023-08-20T10:05:15;6.30;;;2.20;;
65853;SDS011;52627;48.838;2.402;2023-08-20T10:07:43;6.40;;;2.20;;
65853;SDS011;52627;48.838;2.402;2023-08-20T10:10:11;4.50;;;2.00;;
65853;SDS011;52627;48.838;2.402;2023-08-20T10:12:41;4.60;;;2.10;;
65853;SDS011;52627;48.838;2.402;2023-08-20T10:15:12;5.40;;;2.10;;
65853;SDS011;52627;48.838;2.402;2023-08-20T10:17:42;5.40;;;2.20;;
65853;SDS011;52627;48.838;2.402;2023-08-20T10:20:14;4.80;;;2.20;;
65853;SDS011;52627;48.838;2.402;2023-08-20T10:22:45;5.10;;;2.00;;
65853;SDS011;52627;48.838;2.402;2023-08-20T10:25:23;4.60;;;2.00;;
65853;SDS011;52627;48.838;2.402;2023-08-20T10:27:52;6.50;;;2.70;;
65853;SDS011;52627;48.838;2.402;2023-08-20T10:30:25;6.30;;;2.50;;
65853;SDS011;52627;48.838;2.402;2023-08-20T10:32:56;5.20;;;2.50;;
65853;SDS011;52627;48.838;2.402;2023-08-20T10:35:31;4.50;;;2.10;;
65853;SDS011;52627;48.838;2.402;2023-08-20T10:38:16;6.90;;;1.90;;
65853;SDS011;52627;48.838;2.402;2023-08-20T10:40:56;5.60;;;1.90;;
65853;SDS011;52627;48.838;2.402;2023-08-20T10:43:31;5.40;;;2.00;;
65853;SDS011;52627;48.838;2.402;2023-08-20T10:46:04;5.90;;;2.40;;
65853;SDS011;52627;48.838;2.402;2023-08-20T10:48:56;5.50;;;2.60;;
65853;SDS011;52627;48.838;2.402;2023-08-20T10:51:27;3.90;;;2.00;;
65853;SDS011;52627;48.838;2.402;2023-08-20T10:56:40;6.10;;;2.40;;
65853;SDS011;52627;48.838;2.402;2023-08-20T10:59:16;4.90;;;2.30;;
65853;SDS011;52627;48.838;2.402;2023-08-20T11:01:46;5.10;;;2.30;;
65853;SDS011;52627;48.838;2.402;2023-08-20T11:04:16;4.50;;;1.90;;
65853;SDS011;52627;48.838;2.402;2023-08-20T11:06:45;5.50;;;2.30;;
65853;SDS011;52627;48.838;2.402;2023-08-20T11:09:14;4.30;;;2.00;;
65853;SDS011;52627;48.838;2.402;2023-08-20T11:11:42;3.60;;;2.10;;
65853;SDS011;52627;48.838;2.402;2023-08-20T11:14:14;3.80;;;2.10;;
65853;SDS011;52627;48.838;2.402;2023-08-20T11:16:43;6.60;;;2.10;;
65853;SDS011;52627;48.838;2.402;2023-08-20T11:19:13;3.90;;;2.00;;
65853;SDS011;52627;48.838;2.402;2023-08-20T11:21:42;4.90;;;2.30;;
65853;SDS011;52627;48.838;2.402;2023-08-20T11:24:10;5.90;;;2.60;;
65853;SDS011;52627;48.838;2.402;2023-08-20T11:26:40;5.30;;;2.30;;
65853;SDS011;52627;48.838;2.402;2023-08-20T11:29:13;4.60;;;2.10;;
65853;SDS011;52627;48.838;2.402;2023-08-20T11:31:48;5.40;;;2.50;;
65853;SDS011;52627;48.838;2.402;2023-08-20T11:34:19;4.50;;;2.10;;
65853;SDS011;52627;48.838;2.402;2023-08-20T11:36:47;5.90;;;2.20;;
65853;SDS011;52627;48.838;2.402;2023-08-20T11:39:19;4.60;;;1.90;;
65853;SDS011;52627;48.838;2.402;2023-08-20T11:41:47;4.70;;;2.40;;
65853;SDS011;52627;48.838;2.402;2023-08-20T11:44:22;4.30;;;2.20;;
65853;SDS011;52627;48.838;2.402;2023-08-20T11:46:49;6.30;;;2.10;;
65853;SDS011;52627;48.838;2.402;2023-08-20T11:49:26;6.80;;;2.10;;
65853;SDS011;52627;48.838;2.402;2023-08-20T11:51:55;4.50;;;2.00;;
65853;SDS011;52627;48.838;2.402;2023-08-20T11:54:24;4.60;;;2.40;;
65853;SDS011;52627;48.838;2.402;2023-08-20T11:57:02;6.00;;;2.10;;
65853;SDS011;52627;48.838;2.402;2023-08-20T11:59:31;6.40;;;2.50;;
65853;SDS011;52627;48.838;2.402;2023-08-20T12:02:01;3.80;;;2.10;;
65853;SDS011;52627;48.838;2.402;2023-08-20T12:04:32;4.80;;;2.20;;
65853;SDS011;52627;48.838;2.402;2023-08-20T12:07:13;5.30;;;2.20;;
65853;SDS011;52627;48.838;2.402;2023-08-20T12:09:42;4.40;;;2.00;;
65853;SDS011;52627;48.838;2.402;2023-08-20T12:12:10;6.00;;;2.20;;
65853;SDS011;52627;48.838;2.402;2023-08-20T12:14:37;6.00;;;2.20;;
65853;SDS011;52627;48.838;2.402;2023-08-20T12:17:07;4.60;;;2.00;;
65853;SDS011;52627;48.838;2.402;2023-08-20T12:19:34;5.50;;;2.00;;
65853;SDS011;52627;48.838;2.402;2023-08-20T12:22:02;3.70;;;1.90;;
65853;SDS011;52627;48.838;2.402;2023-08-20T12:24:30;4.60;;;2.50;;
65853;SDS011;52627;48.838;2.402;2023-08-20T12:26:58;4.50;;;2.00;;
65853;SDS011;52627;48.838;2.402;2023-08-20T12:29:25;5.40;;;2.20;;
65853;SDS011;52627;48.838;2.402;2023-08-20T12:31:53;5.50;;;2.00;;
65853;SDS011;52627;48.838;2.402;2023-08-20T12:34:21;4.40;;;2.00;;
65853;SDS011;52627;48.838;2.402;2023-08-20T12:36:49;4.20;;;1.80;;
65853;SDS011;52627;48.838;2.402;2023-08-20T12:39:17;6.00;;;2.30;;
65853;SDS011;52627;48.838;2.402;2023-08-20T12:41:45;4.30;;;2.00;;
65853;SDS011;52627;48.838;2.402;2023-08-20T12:44:13;3.90;;;1.80;;
65853;SDS011;52627;48.838;2.402;2023-08-20T12:46:40;4.70;;;1.90;;
65853;SDS011;52627;48.838;2.402;2023-08-20T12:49:08;3.60;;;1.80;;
65853;SDS011;52627;48.838;2.402;2023-08-20T12:51:35;4.30;;;2.00;;
65853;SDS011;52627;48.838;2.402;2023-08-20T12:54:03;4.80;;;2.10;;
65853;SDS011;52627;48.838;2.402;2023-08-20T12:56:31;4.20;;;2.10;;
65853;SDS011;52627;48.838;2.402;2023-08-20T12:58:58;5.70;;;2.10;;
65853;SDS011;52627;48.838;2.402;2023-08-20T13:01:25;4.60;;;1.80;;
65853;SDS011;52627;48.838;2.402;2023-08-20T13:03:54;3.60;;;1.80;;
65853;SDS011;52627;48.838;2.402;2023-08-20T13:06:22;5.10;;;2.10;;
65853;SDS011;52627;48.838;2.402;2023-08-20T13:08:50;4.50;;;1.70;;
65853;SDS011;52627;48.838;2.402;2023-08-20T13:11:20;4.60;;;2.00;;
65853;SDS011;52627;48.838;2.402;2023-08-20T13:13:48;3.80;;;1.80;;
65853;SDS011;52627;48.838;2.402;2023-08-20T13:16:18;4.60;;;1.60;;
65853;SDS011;52627;48.838;2.402;2023-08-20T13:18:47;4.90;;;1.90;;
65853;SDS011;52627;48.838;2.402;2023-08-20T13:21:14;3.70;;;1.60;;
65853;SDS011;52627;48.838;2.402;2023-08-20T13:23:42;4.90;;;1.80;;
65853;SDS011;52627;48.838;2.402;2023-08-20T13:26:11;4.80;;;1.80;;
65853;SDS011;52627;48.838;2.402;2023-08-20T13:28:38;4.20;;;1.70;;
65853;SDS011;52627;48.838;2.402;2023-08-20T13:31:06;4.60;;;2.00;;
65853;SDS011;52627;48.838;2.402;2023-08-20T13:33:33;4.20;;;1.90;;
65853;SDS011;52627;48.838;2.402;2023-08-20T13:36:01;5.90;;;1.80;;
65853;SDS011;52627;48.838;2.402;2023-08-20T13:38:29;3.80;;;1.90;;
65853;SDS011;52627;48.838;2.402;2023-08-20T13:40:56;4.50;;;2.00;;
65853;SDS011;52627;48.838;2.402;2023-08-20T13:43:25;4.40;;;1.80;;
65853;SDS011;52627;48.838;2.402;2023-08-20T13:45:52;3.70;;;1.70;;
65853;SDS011;52627;48.838;2.402;2023-08-20T13:48:20;4.20;;;1.70;;
65853;SDS011;52627;48.838;2.402;2023-08-20T13:50:47;4.60;;;1.70;;
65853;SDS011;52627;48.838;2.402;2023-08-20T13:53:15;4.60;;;2.10;;
65853;SDS011;52627;48.838;2.402;2023-08-20T13:55:42;4.20;;;1.90;;
65853;SDS011;52627;48.838;2.402;2023-08-20T13:58:10;5.00;;;1.80;;
65853;SDS011;52627;48.838;2.402;2023-08-20T14:00:37;3.60;;;1.90;;
65853;SDS011;52627;48.838;2.402;2023-08-20T14:03:05;4.10;;;1.80;;
65853;SDS011;52627;48.838;2.402;2023-08-20T14:05:33;4.00;;;2.10;;
65853;SDS011;52627;48.838;2.402;2023-08-20T14:08:00;4.10;;;2.10;;
65853;SDS011;52627;48.838;2.402;2023-08-20T14:10:28;3.40;;;1.90;;
65853;SDS011;52627;48.838;2.402;2023-08-20T14:12:55;3.60;;;1.70;;
65853;SDS011;52627;48.838;2.402;2023-08-20T14:15:23;4.40;;;1.90;;
65853;SDS011;52627;48.838;2.402;2023-08-20T14:17:50;5.50;;;2.10;;
65853;SDS011;52627;48.838;2.402;2023-08-20T14:20:18;4.00;;;1.70;;
65853;SDS011;52627;48.838;2.402;2023-08-20T14:22:45;4.70;;;2.00;;
65853;SDS011;52627;48.838;2.402;2023-08-20T14:25:13;4.00;;;1.90;;
65853;SDS011;52627;48.838;2.402;2023-08-20T14:27:40;4.60;;;1.70;;
65853;SDS011;52627;48.838;2.402;2023-08-20T14:30:08;5.40;;;1.90;;
65853;SDS011;52627;48.838;2.402;2023-08-20T14:32:37;5.40;;;1.90;;
65853;SDS011;52627;48.838;2.402;2023-08-20T14:35:08;3.50;;;1.40;;
65853;SDS011;52627;48.838;2.402;2023-08-20T14:37:37;3.10;;;1.40;;
65853;SDS011;52627;48.838;2.402;2023-08-20T14:40:05;4.00;;;1.40;;
65853;SDS011;52627;48.838;2.402;2023-08-20T14:42:34;3.70;;;1.80;;
65853;SDS011;52627;48.838;2.402;2023-08-20T14:45:02;4.20;;;1.90;;
65853;SDS011;52627;48.838;2.402;2023-08-20T14:47:31;3.90;;;1.70;;
65853;SDS011;52627;48.838;2.402;2023-08-20T14:49:59;3.30;;;1.50;;
65853;SDS011;52627;48.838;2.402;2023-08-20T14:52:26;4.20;;;1.50;;
65853;SDS011;52627;48.838;2.402;2023-08-20T14:54:54;5.00;;;2.00;;
65853;SDS011;52627;48.838;2.402;2023-08-20T14:57:21;7.60;;;3.00;;
65853;SDS011;52627;48.838;2.402;2023-08-20T14:59:50;4.10;;;1.80;;
65853;SDS011;52627;48.838;2.402;2023-08-20T15:02:18;3.70;;;1.50;;
65853;SDS011;52627;48.838;2.402;2023-08-20T15:04:46;4.60;;;1.80;;
65853;SDS011;52627;48.838;2.402;2023-08-20T15:07:13;4.10;;;1.40;;
65853;SDS011;52627;48.838;2.402;2023-08-20T15:09:41;3.10;;;1.70;;